Middleport, NY (14105)

12:34 AM EST on December 28, 2014 (GMT -0500)
Aves-Apis | Change Station
CLOSE
Current Station
Personal Weather Station
Location: Middleport, NY
Elevation: 427 ft
Nearby Weather Stations

Elev 427 ft 43.24 °N, 78.49 °W | Updated 1 second ago

Overcast
Overcast
48.9 °F
Feels Like 45 °F
N
8.0
Wind Variable Wind from WSW
Gusts 14.0 mph

Today
High -- | Low -- °F
--% Chance of Precip.
Yesterday
High -- | Low -- °F
Precip. -- in
7:45 AM 4:45 PM
Waxing Crescent, 44% visible
Pressure 29.91 in
Visibility 10.0 miles
Clouds Mostly Cloudy 3300 ft
Overcast 6000 ft
Windchill 45 °F
Dew Point 45 °F
Humidity 83%
Rainfall 0.00 in
Snow Depth Not available.
UV 0 out of 12
Pollen .10 out of 12
Air Quality Not available.
Flu Activity Not available.
METAR KBUF 280454Z 24018G26KT 10SM -RA BKN033 OVC060 08/05 A2989 RMK AO2 PK WND 25026/0443 RAB47 SLP126 P0000 T00830050 401220022

More Conditions Fewer Conditions

Pressure 29.91 in
Visibility 10.0 miles
Clouds Mostly Cloudy 3300 ft
Overcast 6000 ft
Windchill 45 °F
Dew Point 45 °F
Humidity 83%
Rainfall 0.00 in
Snow Depth Not available.
UV 0 out of 12
Pollen .10 out of 12
Air Quality Not available.
Flu Activity Not available.
METAR KBUF 280454Z 24018G26KT 10SM -RA BKN033 OVC060 08/05 A2989 RMK AO2 PK WND 25026/0443 RAB47 SLP126 P0000 T00830050 401220022

More Conditions Fewer Conditions

10-Day Weather Forecast

Almanac

Astronomy

Dec. 28, 2014 Rise Set
Actual Time
Civil Twilight
Nautical Twilight
Astronomical Twilight
Moon
Length of Visible Light
Length of Day
Tomorrow will be .
, % of the Moon is Illuminated

Today's Extremes

State Highs State Lows

Community

WunderPhotos

Upload Photos

1,781,208 photos uploaded!

WunderBlogs® & News

Nearby

Air Quality

  Air Quality AQ Index Pollutant
Not available.

Snow Depth

Station Depth Elevation

Earthquake Activity

City Distance Mag. Time & Date
Minimum magnitude displayed is 2.5.

Coastal Water Temperatures

Place Temperature

Nearby Weather Stations